Main page
METAR-TAF:

METAR-TAF

Airports :

Orio al Serio International Airport

Bergamo, Italy

latitude: 45-40N, longitude: 009-42E, elevation: 238 m

Current weather observation

The report was made 35 minutes ago, at 12:20 UTC
Wind 3 kt from the Southwest, varying between South/Southwest and West
Temperature 10°C
Humidity 57%
Pressure 1002 hPa
Visibility 10 km or more
no clouds below 1500 m and no cumulonimbus

METAR: LIME 141220Z 22003KT 200V270 CAVOK 10/02 Q1002 NOSIG

Time: 13:55 (12:55 UTC)

Forecast

The report was made 1 hour and 55 minutes ago, at 11:00 UTC
Forecast valid from 14 at 12 UTC to 15 at 12 UTC
Wind 5 kt from variable directions
Visibility 10 km or more
no clouds below 1500 m and no cumulonimbus
Becoming
from 15 at 07 UTC to 15 at 10 UTC
Visibility: 3500 m
Broken clouds at a height of 1200 ft
Broken clouds at a height of 3500 ft
mist

TAF: LIME 141100Z 1412/1512 VRB05KT CAVOK BECMG 1507/1510 3500 BR BKN012 BKN035

Weather observations and forecasts of more than 4000 airports (METAR and TAF reports).

The available stations are represented by yellow and red dots on the map.

Hover mouse over dot to see the name of the station.

Then click to see weather observations and forecasts.

To change the map : click on the green buttons with a black cross to zoom in, on the green button with a dash to zoom out, or on the green arrows for adjacent maps.


METAR-TAF: